sensor_id;sensor_type;location;lat;lon;timestamp;temperature;humidity
41882;DHT22;27562;47.524;12.404;2023-05-16T00:00:17;9.50;99.90
41882;DHT22;27562;47.524;12.404;2023-05-16T00:02:42;9.50;99.90
41882;DHT22;27562;47.524;12.404;2023-05-16T00:05:08;9.40;99.90
41882;DHT22;27562;47.524;12.404;2023-05-16T00:07:42;9.50;99.90
41882;DHT22;27562;47.524;12.404;2023-05-16T00:10:08;9.50;99.90
41882;DHT22;27562;47.524;12.404;2023-05-16T00:12:34;9.60;99.90
41882;DHT22;27562;47.524;12.404;2023-05-16T00:15:02;9.60;99.90
41882;DHT22;27562;47.524;12.404;2023-05-16T00:17:29;9.60;99.90
41882;DHT22;27562;47.524;12.404;2023-05-16T00:19:55;9.70;99.90
41882;DHT22;27562;47.524;12.404;2023-05-16T00:22:26;9.70;99.90
41882;DHT22;27562;47.524;12.404;2023-05-16T00:24:52;9.70;99.90
41882;DHT22;27562;47.524;12.404;2023-05-16T00:27:17;9.70;99.90
41882;DHT22;27562;47.524;12.404;2023-05-16T00:29:44;9.60;99.90
41882;DHT22;27562;47.524;12.404;2023-05-16T00:32:10;9.60;99.90
41882;DHT22;27562;47.524;12.404;2023-05-16T00:34:35;9.60;99.90
41882;DHT22;27562;47.524;12.404;2023-05-16T00:37:01;9.60;99.90
41882;DHT22;27562;47.524;12.404;2023-05-16T00:39:27;9.60;99.90
41882;DHT22;27562;47.524;12.404;2023-05-16T00:41:53;9.60;99.90
41882;DHT22;27562;47.524;12.404;2023-05-16T00:44:18;9.50;99.90
41882;DHT22;27562;47.524;12.404;2023-05-16T00:46:44;9.60;99.90
41882;DHT22;27562;47.524;12.404;2023-05-16T00:49:11;9.60;99.90
41882;DHT22;27562;47.524;12.404;2023-05-16T00:51:38;9.60;99.90
41882;DHT22;27562;47.524;12.404;2023-05-16T00:54:04;9.60;99.90
41882;DHT22;27562;47.524;12.404;2023-05-16T00:56:31;9.60;99.90
41882;DHT22;27562;47.524;12.404;2023-05-16T00:58:57;9.60;99.90
41882;DHT22;27562;47.524;12.404;2023-05-16T01:01:25;9.60;99.90
41882;DHT22;27562;47.524;12.404;2023-05-16T01:03:52;9.60;99.90
41882;DHT22;27562;47.524;12.404;2023-05-16T01:06:18;9.60;99.90
41882;DHT22;27562;47.524;12.404;2023-05-16T01:08:44;9.50;99.90
41882;DHT22;27562;47.524;12.404;2023-05-16T01:13:51;9.40;99.90
41882;DHT22;27562;47.524;12.404;2023-05-16T01:16:45;9.40;99.90
41882;DHT22;27562;47.524;12.404;2023-05-16T01:28:20;9.30;99.90
41882;DHT22;27562;47.524;12.404;2023-05-16T01:30:46;9.30;99.90
41882;DHT22;27562;47.524;12.404;2023-05-16T01:33:11;9.20;99.90
41882;DHT22;27562;47.524;12.404;2023-05-16T01:35:59;9.20;99.90
41882;DHT22;27562;47.524;12.404;2023-05-16T01:41:42;9.20;99.90
41882;DHT22;27562;47.524;12.404;2023-05-16T01:44:20;9.10;99.90
41882;DHT22;27562;47.524;12.404;2023-05-16T01:46:48;9.20;99.90
41882;DHT22;27562;47.524;12.404;2023-05-16T01:49:19;9.20;99.90
41882;DHT22;27562;47.524;12.404;2023-05-16T01:51:53;9.30;99.90
41882;DHT22;27562;47.524;12.404;2023-05-16T01:54:20;9.30;99.90
41882;DHT22;27562;47.524;12.404;2023-05-16T01:56:52;9.30;99.90
41882;DHT22;27562;47.524;12.404;2023-05-16T01:59:20;9.30;99.90
41882;DHT22;27562;47.524;12.404;2023-05-16T02:01:46;9.40;99.90
41882;DHT22;27562;47.524;12.404;2023-05-16T02:04:12;9.30;99.90
41882;DHT22;27562;47.524;12.404;2023-05-16T02:06:40;9.30;99.90
41882;DHT22;27562;47.524;12.404;2023-05-16T02:09:06;9.30;99.90
41882;DHT22;27562;47.524;12.404;2023-05-16T02:11:33;9.30;99.90
41882;DHT22;27562;47.524;12.404;2023-05-16T02:13:58;9.30;99.90
41882;DHT22;27562;47.524;12.404;2023-05-16T02:16:24;9.30;99.90
41882;DHT22;27562;47.524;12.404;2023-05-16T02:18:50;9.30;99.90
41882;DHT22;27562;47.524;12.404;2023-05-16T02:21:15;9.30;99.90
41882;DHT22;27562;47.524;12.404;2023-05-16T02:23:41;9.30;99.90
41882;DHT22;27562;47.524;12.404;2023-05-16T02:26:07;9.30;99.90
41882;DHT22;27562;47.524;12.404;2023-05-16T02:28:33;9.40;99.90
41882;DHT22;27562;47.524;12.404;2023-05-16T02:30:59;9.30;99.90
41882;DHT22;27562;47.524;12.404;2023-05-16T02:33:25;9.40;99.90
41882;DHT22;27562;47.524;12.404;2023-05-16T02:35:52;9.30;99.90
41882;DHT22;27562;47.524;12.404;2023-05-16T02:38:18;9.30;99.90
41882;DHT22;27562;47.524;12.404;2023-05-16T02:40:46;9.30;99.90
41882;DHT22;27562;47.524;12.404;2023-05-16T02:43:12;9.20;99.90
41882;DHT22;27562;47.524;12.404;2023-05-16T02:45:38;9.10;99.90
41882;DHT22;27562;47.524;12.404;2023-05-16T02:48:04;9.10;99.90
41882;DHT22;27562;47.524;12.404;2023-05-16T02:50:30;9.00;99.90
41882;DHT22;27562;47.524;12.404;2023-05-16T02:52:56;9.00;99.90
41882;DHT22;27562;47.524;12.404;2023-05-16T02:55:24;8.90;99.90
41882;DHT22;27562;47.524;12.404;2023-05-16T02:57:50;8.90;99.90
41882;DHT22;27562;47.524;12.404;2023-05-16T03:00:17;9.00;99.90
41882;DHT22;27562;47.524;12.404;2023-05-16T03:02:43;9.00;99.90
41882;DHT22;27562;47.524;12.404;2023-05-16T03:05:10;9.10;99.90
41882;DHT22;27562;47.524;12.404;2023-05-16T03:07:36;9.10;99.90
41882;DHT22;27562;47.524;12.404;2023-05-16T03:10:02;9.00;99.90
41882;DHT22;27562;47.524;12.404;2023-05-16T03:12:28;9.10;99.90
41882;DHT22;27562;47.524;12.404;2023-05-16T03:14:54;9.10;99.90
41882;DHT22;27562;47.524;12.404;2023-05-16T03:17:20;9.20;99.90
41882;DHT22;27562;47.524;12.404;2023-05-16T03:19:45;9.20;99.90
41882;DHT22;27562;47.524;12.404;2023-05-16T03:22:11;9.20;99.90
41882;DHT22;27562;47.524;12.404;2023-05-16T03:24:36;9.20;99.90
41882;DHT22;27562;47.524;12.404;2023-05-16T03:27:02;9.10;99.90
41882;DHT22;27562;47.524;12.404;2023-05-16T03:29:29;9.10;99.90
41882;DHT22;27562;47.524;12.404;2023-05-16T03:31:55;9.20;99.90
41882;DHT22;27562;47.524;12.404;2023-05-16T03:34:21;9.20;99.90
41882;DHT22;27562;47.524;12.404;2023-05-16T03:36:50;9.20;99.90
41882;DHT22;27562;47.524;12.404;2023-05-16T03:39:16;9.20;99.90
41882;DHT22;27562;47.524;12.404;2023-05-16T03:41:42;9.20;99.90
41882;DHT22;27562;47.524;12.404;2023-05-16T03:44:08;9.20;99.90
41882;DHT22;27562;47.524;12.404;2023-05-16T03:46:36;9.10;99.90
41882;DHT22;27562;47.524;12.404;2023-05-16T03:49:02;9.10;99.90
41882;DHT22;27562;47.524;12.404;2023-05-16T03:51:28;9.00;99.90
41882;DHT22;27562;47.524;12.404;2023-05-16T03:53:54;9.00;99.90
41882;DHT22;27562;47.524;12.404;2023-05-16T03:56:20;9.00;99.90
41882;DHT22;27562;47.524;12.404;2023-05-16T03:58:46;9.10;99.90
41882;DHT22;27562;47.524;12.404;2023-05-16T04:01:13;9.10;99.90
41882;DHT22;27562;47.524;12.404;2023-05-16T04:03:38;9.10;99.90
41882;DHT22;27562;47.524;12.404;2023-05-16T04:06:05;9.10;99.90
41882;DHT22;27562;47.524;12.404;2023-05-16T04:08:31;9.10;99.90
41882;DHT22;27562;47.524;12.404;2023-05-16T04:10:57;9.10;99.90
41882;DHT22;27562;47.524;12.404;2023-05-16T04:13:23;9.20;99.90
41882;DHT22;27562;47.524;12.404;2023-05-16T04:15:48;9.20;99.90
41882;DHT22;27562;47.524;12.404;2023-05-16T04:18:14;9.20;99.90
41882;DHT22;27562;47.524;12.404;2023-05-16T04:20:41;9.20;99.90
41882;DHT22;27562;47.524;12.404;2023-05-16T04:23:07;9.10;99.90
41882;DHT22;27562;47.524;12.404;2023-05-16T04:25:35;9.10;99.90
41882;DHT22;27562;47.524;12.404;2023-05-16T04:28:01;9.10;99.90
41882;DHT22;27562;47.524;12.404;2023-05-16T04:30:26;9.00;99.90
41882;DHT22;27562;47.524;12.404;2023-05-16T04:32:52;9.00;99.90
41882;DHT22;27562;47.524;12.404;2023-05-16T04:35:18;9.00;99.90
41882;DHT22;27562;47.524;12.404;2023-05-16T04:37:43;9.00;99.90
41882;DHT22;27562;47.524;12.404;2023-05-16T04:40:10;9.00;99.90
41882;DHT22;27562;47.524;12.404;2023-05-16T04:42:37;9.10;99.90
41882;DHT22;27562;47.524;12.404;2023-05-16T04:45:03;9.10;99.90
41882;DHT22;27562;47.524;12.404;2023-05-16T04:47:31;9.20;99.90
41882;DHT22;27562;47.524;12.404;2023-05-16T04:49:56;9.20;99.90
41882;DHT22;27562;47.524;12.404;2023-05-16T04:52:22;9.20;99.90
41882;DHT22;27562;47.524;12.404;2023-05-16T04:54:50;9.20;99.90
41882;DHT22;27562;47.524;12.404;2023-05-16T04:57:16;9.30;99.90
41882;DHT22;27562;47.524;12.404;2023-05-16T04:59:42;9.30;99.90
41882;DHT22;27562;47.524;12.404;2023-05-16T05:02:08;9.30;99.90
41882;DHT22;27562;47.524;12.404;2023-05-16T05:04:34;9.40;99.90
41882;DHT22;27562;47.524;12.404;2023-05-16T05:07:00;9.50;99.90
41882;DHT22;27562;47.524;12.404;2023-05-16T05:09:26;9.50;99.90
41882;DHT22;27562;47.524;12.404;2023-05-16T05:11:51;9.50;99.90
41882;DHT22;27562;47.524;12.404;2023-05-16T05:14:17;9.50;99.90
41882;DHT22;27562;47.524;12.404;2023-05-16T05:16:43;9.60;99.90
41882;DHT22;27562;47.524;12.404;2023-05-16T05:19:08;9.60;99.90
41882;DHT22;27562;47.524;12.404;2023-05-16T05:21:34;9.70;99.90
41882;DHT22;27562;47.524;12.404;2023-05-16T05:24:00;9.70;99.90
41882;DHT22;27562;47.524;12.404;2023-05-16T05:26:25;9.80;99.90
41882;DHT22;27562;47.524;12.404;2023-05-16T05:28:53;9.80;99.90
41882;DHT22;27562;47.524;12.404;2023-05-16T05:31:19;9.80;99.90
41882;DHT22;27562;47.524;12.404;2023-05-16T05:33:44;9.90;99.90
41882;DHT22;27562;47.524;12.404;2023-05-16T05:36:10;9.90;99.90
41882;DHT22;27562;47.524;12.404;2023-05-16T05:38:36;10.00;99.90
41882;DHT22;27562;47.524;12.404;2023-05-16T05:41:03;10.00;99.90
41882;DHT22;27562;47.524;12.404;2023-05-16T05:43:28;9.90;99.90
41882;DHT22;27562;47.524;12.404;2023-05-16T05:45:54;9.90;99.90
41882;DHT22;27562;47.524;12.404;2023-05-16T05:48:20;9.90;99.90
41882;DHT22;27562;47.524;12.404;2023-05-16T05:50:46;10.00;99.90
41882;DHT22;27562;47.524;12.404;2023-05-16T05:53:11;10.00;99.90
41882;DHT22;27562;47.524;12.404;2023-05-16T05:55:37;10.00;99.90
41882;DHT22;27562;47.524;12.404;2023-05-16T05:58:06;10.00;99.90
41882;DHT22;27562;47.524;12.404;2023-05-16T06:00:31;10.00;99.90
41882;DHT22;27562;47.524;12.404;2023-05-16T06:02:57;10.10;99.90
41882;DHT22;27562;47.524;12.404;2023-05-16T06:05:23;10.10;99.90
41882;DHT22;27562;47.524;12.404;2023-05-16T06:07:48;10.10;99.90
41882;DHT22;27562;47.524;12.404;2023-05-16T06:10:14;10.10;99.90
41882;DHT22;27562;47.524;12.404;2023-05-16T06:12:40;10.10;99.90
41882;DHT22;27562;47.524;12.404;2023-05-16T06:15:06;10.10;99.90
41882;DHT22;27562;47.524;12.404;2023-05-16T06:17:32;10.10;99.90
41882;DHT22;27562;47.524;12.404;2023-05-16T06:19:57;10.10;99.90
41882;DHT22;27562;47.524;12.404;2023-05-16T06:22:23;10.10;99.90
41882;DHT22;27562;47.524;12.404;2023-05-16T06:24:49;10.20;99.90
41882;DHT22;27562;47.524;12.404;2023-05-16T06:27:15;10.20;99.90
41882;DHT22;27562;47.524;12.404;2023-05-16T06:29:40;10.20;99.90
41882;DHT22;27562;47.524;12.404;2023-05-16T06:32:06;10.30;99.90
41882;DHT22;27562;47.524;12.404;2023-05-16T06:34:32;10.30;99.90
41882;DHT22;27562;47.524;12.404;2023-05-16T06:36:57;10.30;99.90
41882;DHT22;27562;47.524;12.404;2023-05-16T06:39:24;10.30;99.90
41882;DHT22;27562;47.524;12.404;2023-05-16T06:41:50;10.30;99.90
41882;DHT22;27562;47.524;12.404;2023-05-16T06:44:16;10.40;99.90
41882;DHT22;27562;47.524;12.404;2023-05-16T06:46:41;10.40;99.90
41882;DHT22;27562;47.524;12.404;2023-05-16T06:49:07;10.50;99.90
41882;DHT22;27562;47.524;12.404;2023-05-16T06:51:33;10.60;99.90
41882;DHT22;27562;47.524;12.404;2023-05-16T06:53:58;10.60;99.90
41882;DHT22;27562;47.524;12.404;2023-05-16T06:56:24;10.60;99.90
41882;DHT22;27562;47.524;12.404;2023-05-16T06:58:50;10.70;99.90
41882;DHT22;27562;47.524;12.404;2023-05-16T07:01:16;10.80;99.90
41882;DHT22;27562;47.524;12.404;2023-05-16T07:03:41;10.80;99.90
41882;DHT22;27562;47.524;12.404;2023-05-16T07:06:07;10.80;99.90
41882;DHT22;27562;47.524;12.404;2023-05-16T07:08:33;10.80;99.90
41882;DHT22;27562;47.524;12.404;2023-05-16T07:11:00;10.80;99.90
41882;DHT22;27562;47.524;12.404;2023-05-16T07:13:26;10.80;99.90
41882;DHT22;27562;47.524;12.404;2023-05-16T07:15:52;10.80;99.90
41882;DHT22;27562;47.524;12.404;2023-05-16T07:18:17;10.80;99.90
41882;DHT22;27562;47.524;12.404;2023-05-16T07:20:43;10.80;99.90
41882;DHT22;27562;47.524;12.404;2023-05-16T07:23:09;10.90;99.90
41882;DHT22;27562;47.524;12.404;2023-05-16T07:25:35;10.90;99.90
41882;DHT22;27562;47.524;12.404;2023-05-16T07:28:01;10.90;99.90
41882;DHT22;27562;47.524;12.404;2023-05-16T07:30:27;11.00;99.90
41882;DHT22;27562;47.524;12.404;2023-05-16T07:32:53;11.00;99.90
41882;DHT22;27562;47.524;12.404;2023-05-16T07:35:19;11.00;99.90
41882;DHT22;27562;47.524;12.404;2023-05-16T07:37:44;11.00;99.90
41882;DHT22;27562;47.524;12.404;2023-05-16T07:40:10;11.00;99.90
41882;DHT22;27562;47.524;12.404;2023-05-16T07:42:36;11.00;99.90
41882;DHT22;27562;47.524;12.404;2023-05-16T07:45:02;11.00;99.90
41882;DHT22;27562;47.524;12.404;2023-05-16T07:47:28;11.10;99.90
41882;DHT22;27562;47.524;12.404;2023-05-16T07:49:54;11.10;99.90
41882;DHT22;27562;47.524;12.404;2023-05-16T07:52:20;11.20;99.90
41882;DHT22;27562;47.524;12.404;2023-05-16T07:54:46;11.20;99.90
41882;DHT22;27562;47.524;12.404;2023-05-16T07:57:15;11.20;99.90
41882;DHT22;27562;47.524;12.404;2023-05-16T07:59:42;11.30;99.90
41882;DHT22;27562;47.524;12.404;2023-05-16T08:02:08;11.30;99.90
41882;DHT22;27562;47.524;12.404;2023-05-16T08:04:34;11.30;99.90
41882;DHT22;27562;47.524;12.404;2023-05-16T08:07:00;11.40;99.90
41882;DHT22;27562;47.524;12.404;2023-05-16T08:09:26;11.50;99.90
41882;DHT22;27562;47.524;12.404;2023-05-16T08:11:52;11.50;99.90
41882;DHT22;27562;47.524;12.404;2023-05-16T08:14:17;11.40;99.90
41882;DHT22;27562;47.524;12.404;2023-05-16T08:16:43;11.50;99.90
41882;DHT22;27562;47.524;12.404;2023-05-16T08:19:09;11.50;99.90
41882;DHT22;27562;47.524;12.404;2023-05-16T08:21:34;11.50;99.90
41882;DHT22;27562;47.524;12.404;2023-05-16T08:24:00;11.50;99.90
41882;DHT22;27562;47.524;12.404;2023-05-16T08:26:26;11.50;99.90
41882;DHT22;27562;47.524;12.404;2023-05-16T08:28:52;11.50;99.90
41882;DHT22;27562;47.524;12.404;2023-05-16T08:31:17;11.60;99.90
41882;DHT22;27562;47.524;12.404;2023-05-16T08:33:43;11.60;99.90
41882;DHT22;27562;47.524;12.404;2023-05-16T08:36:09;11.70;99.90
41882;DHT22;27562;47.524;12.404;2023-05-16T08:38:35;11.70;99.90
41882;DHT22;27562;47.524;12.404;2023-05-16T08:41:01;11.70;99.90
41882;DHT22;27562;47.524;12.404;2023-05-16T08:43:27;11.70;99.90
41882;DHT22;27562;47.524;12.404;2023-05-16T08:45:53;11.70;99.90
41882;DHT22;27562;47.524;12.404;2023-05-16T08:48:22;11.60;99.90
41882;DHT22;27562;47.524;12.404;2023-05-16T08:50:48;11.60;99.90
41882;DHT22;27562;47.524;12.404;2023-05-16T08:53:18;11.60;99.90
41882;DHT22;27562;47.524;12.404;2023-05-16T08:55:46;11.60;99.90
41882;DHT22;27562;47.524;12.404;2023-05-16T08:58:13;11.60;99.90
41882;DHT22;27562;47.524;12.404;2023-05-16T09:00:39;11.60;99.90
41882;DHT22;27562;47.524;12.404;2023-05-16T09:03:05;11.60;99.90
41882;DHT22;27562;47.524;12.404;2023-05-16T09:05:31;11.60;99.90
41882;DHT22;27562;47.524;12.404;2023-05-16T09:07:57;11.70;99.90
41882;DHT22;27562;47.524;12.404;2023-05-16T09:10:23;11.70;99.90
41882;DHT22;27562;47.524;12.404;2023-05-16T09:12:48;11.80;99.90
41882;DHT22;27562;47.524;12.404;2023-05-16T09:15:17;11.80;99.90
41882;DHT22;27562;47.524;12.404;2023-05-16T09:17:44;11.80;99.90
41882;DHT22;27562;47.524;12.404;2023-05-16T09:20:17;11.80;99.90
41882;DHT22;27562;47.524;12.404;2023-05-16T09:22:56;11.90;99.90
41882;DHT22;27562;47.524;12.404;2023-05-16T09:25:25;11.90;99.90
41882;DHT22;27562;47.524;12.404;2023-05-16T09:27:55;12.00;99.90
41882;DHT22;27562;47.524;12.404;2023-05-16T09:30:27;12.00;99.90
41882;DHT22;27562;47.524;12.404;2023-05-16T09:32:53;12.10;99.90
41882;DHT22;27562;47.524;12.404;2023-05-16T09:35:20;12.20;99.90
41882;DHT22;27562;47.524;12.404;2023-05-16T09:37:47;12.20;99.90
41882;DHT22;27562;47.524;12.404;2023-05-16T09:40:13;12.20;99.90
41882;DHT22;27562;47.524;12.404;2023-05-16T09:42:39;12.30;99.90
41882;DHT22;27562;47.524;12.404;2023-05-16T09:45:05;12.20;99.90
41882;DHT22;27562;47.524;12.404;2023-05-16T09:47:31;12.20;99.90
41882;DHT22;27562;47.524;12.404;2023-05-16T09:49:57;12.20;99.90
41882;DHT22;27562;47.524;12.404;2023-05-16T09:52:26;12.10;99.90
41882;DHT22;27562;47.524;12.404;2023-05-16T09:54:53;12.10;99.90
41882;DHT22;27562;47.524;12.404;2023-05-16T09:57:20;12.10;99.90
41882;DHT22;27562;47.524;12.404;2023-05-16T09:59:51;12.10;99.90
41882;DHT22;27562;47.524;12.404;2023-05-16T10:02:17;12.10;99.90
41882;DHT22;27562;47.524;12.404;2023-05-16T10:04:43;12.10;99.90
41882;DHT22;27562;47.524;12.404;2023-05-16T10:07:09;12.00;99.90
41882;DHT22;27562;47.524;12.404;2023-05-16T10:09:35;12.00;99.90
41882;DHT22;27562;47.524;12.404;2023-05-16T10:12:10;12.00;99.90
41882;DHT22;27562;47.524;12.404;2023-05-16T10:14:38;12.00;99.90
41882;DHT22;27562;47.524;12.404;2023-05-16T10:17:07;12.10;99.90
41882;DHT22;27562;47.524;12.404;2023-05-16T10:19:37;12.10;99.90
41882;DHT22;27562;47.524;12.404;2023-05-16T10:22:05;12.20;99.90
41882;DHT22;27562;47.524;12.404;2023-05-16T10:24:57;12.20;99.90
41882;DHT22;27562;47.524;12.404;2023-05-16T10:27:25;12.20;99.90
41882;DHT22;27562;47.524;12.404;2023-05-16T10:29:52;12.20;99.90
41882;DHT22;27562;47.524;12.404;2023-05-16T10:32:18;12.20;99.90
41882;DHT22;27562;47.524;12.404;2023-05-16T10:34:45;12.10;99.90
41882;DHT22;27562;47.524;12.404;2023-05-16T10:37:11;12.10;99.90
41882;DHT22;27562;47.524;12.404;2023-05-16T10:39:38;12.20;99.90
41882;DHT22;27562;47.524;12.404;2023-05-16T10:42:05;12.20;99.90
41882;DHT22;27562;47.524;12.404;2023-05-16T10:44:32;12.30;99.90
41882;DHT22;27562;47.524;12.404;2023-05-16T10:46:59;12.30;99.90
41882;DHT22;27562;47.524;12.404;2023-05-16T10:49:26;12.30;99.90
41882;DHT22;27562;47.524;12.404;2023-05-16T10:54:43;12.30;99.90
41882;DHT22;27562;47.524;12.404;2023-05-16T10:57:19;12.30;99.90
41882;DHT22;27562;47.524;12.404;2023-05-16T10:59:49;12.30;99.90
41882;DHT22;27562;47.524;12.404;2023-05-16T11:02:27;12.20;99.90
41882;DHT22;27562;47.524;12.404;2023-05-16T11:04:57;12.20;99.90
41882;DHT22;27562;47.524;12.404;2023-05-16T11:07:25;12.10;99.90
41882;DHT22;27562;47.524;12.404;2023-05-16T11:10:08;12.20;99.90
41882;DHT22;27562;47.524;12.404;2023-05-16T11:12:45;12.20;99.90
41882;DHT22;27562;47.524;12.404;2023-05-16T11:15:26;12.10;99.90
41882;DHT22;27562;47.524;12.404;2023-05-16T11:18:15;12.10;99.90
41882;DHT22;27562;47.524;12.404;2023-05-16T11:20:41;12.10;99.90
41882;DHT22;27562;47.524;12.404;2023-05-16T11:25:45;12.10;99.90
41882;DHT22;27562;47.524;12.404;2023-05-16T11:28:13;12.00;99.90
41882;DHT22;27562;47.524;12.404;2023-05-16T11:30:58;12.00;99.90
41882;DHT22;27562;47.524;12.404;2023-05-16T11:33:24;12.00;99.90
41882;DHT22;27562;47.524;12.404;2023-05-16T11:36:06;12.00;99.90
41882;DHT22;27562;47.524;12.404;2023-05-16T11:38:33;12.00;99.90
41882;DHT22;27562;47.524;12.404;2023-05-16T11:41:06;12.00;99.90
41882;DHT22;27562;47.524;12.404;2023-05-16T11:43:50;12.00;99.90
41882;DHT22;27562;47.524;12.404;2023-05-16T11:46:16;12.00;99.90
41882;DHT22;27562;47.524;12.404;2023-05-16T11:48:42;12.00;99.90
41882;DHT22;27562;47.524;12.404;2023-05-16T11:51:10;12.00;99.90
41882;DHT22;27562;47.524;12.404;2023-05-16T11:53:36;12.00;99.90
41882;DHT22;27562;47.524;12.404;2023-05-16T11:56:02;12.00;99.90
41882;DHT22;27562;47.524;12.404;2023-05-16T11:58:28;12.00;99.90
41882;DHT22;27562;47.524;12.404;2023-05-16T12:00:54;11.90;99.90
41882;DHT22;27562;47.524;12.404;2023-05-16T12:03:20;11.90;99.90
41882;DHT22;27562;47.524;12.404;2023-05-16T12:05:52;12.00;99.90
41882;DHT22;27562;47.524;12.404;2023-05-16T12:08:20;11.90;99.90
41882;DHT22;27562;47.524;12.404;2023-05-16T12:10:52;11.90;99.90
41882;DHT22;27562;47.524;12.404;2023-05-16T12:13:23;11.80;99.90
41882;DHT22;27562;47.524;12.404;2023-05-16T12:15:50;11.80;99.90
41882;DHT22;27562;47.524;12.404;2023-05-16T12:18:20;11.80;99.90
41882;DHT22;27562;47.524;12.404;2023-05-16T12:20:46;11.80;99.90
41882;DHT22;27562;47.524;12.404;2023-05-16T12:23:12;11.70;99.90
41882;DHT22;27562;47.524;12.404;2023-05-16T12:25:39;11.80;99.90
41882;DHT22;27562;47.524;12.404;2023-05-16T12:28:11;11.80;99.90
41882;DHT22;27562;47.524;12.404;2023-05-16T12:30:43;11.80;99.90
41882;DHT22;27562;47.524;12.404;2023-05-16T12:33:13;11.80;99.90
41882;DHT22;27562;47.524;12.404;2023-05-16T12:35:44;11.80;99.90
41882;DHT22;27562;47.524;12.404;2023-05-16T12:38:12;11.80;99.90
41882;DHT22;27562;47.524;12.404;2023-05-16T12:40:41;11.90;99.90
41882;DHT22;27562;47.524;12.404;2023-05-16T12:43:20;11.90;99.90
41882;DHT22;27562;47.524;12.404;2023-05-16T12:45:50;12.00;99.90
41882;DHT22;27562;47.524;12.404;2023-05-16T12:48:17;12.00;99.90
41882;DHT22;27562;47.524;12.404;2023-05-16T12:50:43;12.10;99.90
41882;DHT22;27562;47.524;12.404;2023-05-16T12:53:18;12.10;99.90
41882;DHT22;27562;47.524;12.404;2023-05-16T12:55:44;12.20;99.90
41882;DHT22;27562;47.524;12.404;2023-05-16T12:58:10;12.30;99.90
41882;DHT22;27562;47.524;12.404;2023-05-16T13:00:36;12.30;99.90
41882;DHT22;27562;47.524;12.404;2023-05-16T13:03:05;12.30;99.90
41882;DHT22;27562;47.524;12.404;2023-05-16T13:05:32;12.20;99.90
41882;DHT22;27562;47.524;12.404;2023-05-16T13:07:57;12.20;99.90
41882;DHT22;27562;47.524;12.404;2023-05-16T13:10:23;12.10;99.90
41882;DHT22;27562;47.524;12.404;2023-05-16T13:12:50;12.10;99.90
41882;DHT22;27562;47.524;12.404;2023-05-16T13:15:16;12.00;99.90
41882;DHT22;27562;47.524;12.404;2023-05-16T13:17:42;11.90;99.90
41882;DHT22;27562;47.524;12.404;2023-05-16T13:20:11;11.90;99.90
41882;DHT22;27562;47.524;12.404;2023-05-16T13:22:39;11.90;99.90
41882;DHT22;27562;47.524;12.404;2023-05-16T13:25:06;12.00;99.90
41882;DHT22;27562;47.524;12.404;2023-05-16T13:27:32;12.00;99.90
41882;DHT22;27562;47.524;12.404;2023-05-16T13:29:58;12.00;99.90
41882;DHT22;27562;47.524;12.404;2023-05-16T13:32:24;12.00;99.90
41882;DHT22;27562;47.524;12.404;2023-05-16T13:34:50;12.00;99.90
41882;DHT22;27562;47.524;12.404;2023-05-16T13:37:17;12.00;99.90
41882;DHT22;27562;47.524;12.404;2023-05-16T13:39:43;12.00;99.90
41882;DHT22;27562;47.524;12.404;2023-05-16T13:42:09;11.90;99.90
41882;DHT22;27562;47.524;12.404;2023-05-16T13:44:35;11.90;99.90
41882;DHT22;27562;47.524;12.404;2023-05-16T13:47:01;11.90;99.90
41882;DHT22;27562;47.524;12.404;2023-05-16T13:49:27;11.90;99.90
41882;DHT22;27562;47.524;12.404;2023-05-16T13:51:53;11.90;99.90
41882;DHT22;27562;47.524;12.404;2023-05-16T13:54:19;11.90;99.90
41882;DHT22;27562;47.524;12.404;2023-05-16T13:56:46;11.90;99.90
41882;DHT22;27562;47.524;12.404;2023-05-16T13:59:12;11.90;99.90
41882;DHT22;27562;47.524;12.404;2023-05-16T14:01:37;11.90;99.90
41882;DHT22;27562;47.524;12.404;2023-05-16T14:04:03;11.80;99.90
41882;DHT22;27562;47.524;12.404;2023-05-16T14:06:29;11.80;99.90
41882;DHT22;27562;47.524;12.404;2023-05-16T14:08:55;11.80;99.90
41882;DHT22;27562;47.524;12.404;2023-05-16T14:11:21;11.80;99.90
41882;DHT22;27562;47.524;12.404;2023-05-16T14:13:51;11.80;99.90
41882;DHT22;27562;47.524;12.404;2023-05-16T14:16:17;11.80;99.90
41882;DHT22;27562;47.524;12.404;2023-05-16T14:18:42;11.90;99.90
41882;DHT22;27562;47.524;12.404;2023-05-16T14:21:08;11.90;99.90
41882;DHT22;27562;47.524;12.404;2023-05-16T14:23:34;11.90;99.90
41882;DHT22;27562;47.524;12.404;2023-05-16T14:26:00;11.90;99.90
41882;DHT22;27562;47.524;12.404;2023-05-16T14:28:27;12.00;99.90
41882;DHT22;27562;47.524;12.404;2023-05-16T14:30:52;12.00;99.90
41882;DHT22;27562;47.524;12.404;2023-05-16T14:33:18;12.00;99.90
41882;DHT22;27562;47.524;12.404;2023-05-16T14:35:44;12.00;99.90
41882;DHT22;27562;47.524;12.404;2023-05-16T14:38:10;12.00;99.90
41882;DHT22;27562;47.524;12.404;2023-05-16T14:40:35;12.00;99.90
41882;DHT22;27562;47.524;12.404;2023-05-16T14:43:01;12.00;99.90
41882;DHT22;27562;47.524;12.404;2023-05-16T14:45:29;11.90;99.90
41882;DHT22;27562;47.524;12.404;2023-05-16T14:47:54;11.80;99.90
41882;DHT22;27562;47.524;12.404;2023-05-16T14:50:20;11.70;99.90
41882;DHT22;27562;47.524;12.404;2023-05-16T14:52:46;11.70;99.90
41882;DHT22;27562;47.524;12.404;2023-05-16T14:55:12;11.60;99.90
41882;DHT22;27562;47.524;12.404;2023-05-16T14:57:37;11.60;99.90
41882;DHT22;27562;47.524;12.404;2023-05-16T15:00:03;11.60;99.90
41882;DHT22;27562;47.524;12.404;2023-05-16T15:02:30;11.60;99.90
41882;DHT22;27562;47.524;12.404;2023-05-16T15:04:55;11.60;99.90
41882;DHT22;27562;47.524;12.404;2023-05-16T15:07:21;11.60;99.90
41882;DHT22;27562;47.524;12.404;2023-05-16T15:09:47;11.60;99.90
41882;DHT22;27562;47.524;12.404;2023-05-16T15:12:12;11.60;99.90
41882;DHT22;27562;47.524;12.404;2023-05-16T15:14:38;11.60;99.90
41882;DHT22;27562;47.524;12.404;2023-05-16T15:17:04;11.60;99.90
41882;DHT22;27562;47.524;12.404;2023-05-16T15:19:29;11.60;99.90
41882;DHT22;27562;47.524;12.404;2023-05-16T15:21:55;11.70;99.90
41882;DHT22;27562;47.524;12.404;2023-05-16T15:24:21;11.70;99.90
41882;DHT22;27562;47.524;12.404;2023-05-16T15:26:47;11.60;99.90
41882;DHT22;27562;47.524;12.404;2023-05-16T15:29:14;11.50;99.90
41882;DHT22;27562;47.524;12.404;2023-05-16T15:31:40;11.60;99.90
41882;DHT22;27562;47.524;12.404;2023-05-16T15:34:05;11.60;99.90
41882;DHT22;27562;47.524;12.404;2023-05-16T15:36:33;11.50;99.90
41882;DHT22;27562;47.524;12.404;2023-05-16T15:38:59;11.40;99.90
41882;DHT22;27562;47.524;12.404;2023-05-16T15:41:24;11.30;99.90